Time;durP1;ratioP1;P1;durP2;ratioP2;P2;SDS_P1;SDS_P2;PMS_P1;PMS_P2;Temp;Humidity;BMP_temperature;BMP_pressure;BME280_temperature;BME280_humidity;BME280_pressure;Samples;Min_cycle;Max_cycle;Signal;HPM_P1;HPM_P2
2023/08/19 00:00:26;;;;;;;5.28;4.35;;;;;;;23.09;97.25;101549.84;6047487;29;20547;-67
2023/08/19 00:03:48;;;;;;;6.20;5.00;;;;;;;23.05;97.04;101560.41;6049909;29;20237;-67
2023/08/19 00:07:10;;;;;;;5.18;4.68;;;;;;;23.05;97.34;101569.50;6044635;29;20925;-66
2023/08/19 00:10:31;;;;;;;4.65;4.25;;;;;;;23.06;97.03;101564.84;6051640;29;20241;-66
2023/08/19 00:13:52;;;;;;;6.13;5.55;;;;;;;23.04;97.46;101564.19;6061005;29;22214;-67
2023/08/19 00:17:13;;;;;;;6.10;5.50;;;;;;;23.03;97.24;101557.84;6048871;29;20355;-66
2023/08/19 00:20:34;;;;;;;4.97;4.50;;;;;;;23.02;97.29;101547.03;6055268;29;20584;-66
2023/08/19 00:23:56;;;;;;;5.88;5.20;;;;;;;22.99;97.82;101555.69;6062636;29;20244;-66
2023/08/19 00:27:17;;;;;;;5.53;4.97;;;;;;;22.90;97.88;101556.91;6064804;29;20224;-66
2023/08/19 00:30:38;;;;;;;5.32;4.82;;;;;;;22.90;98.14;101557.75;6061566;29;20241;-67
2023/08/19 00:33:59;;;;;;;5.95;5.40;;;;;;;22.82;97.85;101559.81;6058382;29;20233;-67
2023/08/19 00:37:20;;;;;;;6.38;5.70;;;;;;;22.83;98.41;101548.59;6028714;29;20228;-67
2023/08/19 00:40:43;;;;;;;5.18;4.70;;;;;;;22.85;98.37;101549.25;6054576;29;20245;-67
2023/08/19 00:44:04;;;;;;;4.50;4.10;;;;;;;22.91;98.52;101539.34;6058469;29;20240;-67
2023/08/19 00:47:26;;;;;;;5.53;4.80;;;;;;;22.85;98.36;101538.25;6039033;29;20320;-66
2023/08/19 00:50:47;;;;;;;5.22;4.30;;;;;;;22.80;98.75;101537.16;6045759;29;20229;-67
2023/08/19 00:54:09;;;;;;;5.60;5.03;;;;;;;22.75;99.17;101542.41;6036582;29;20253;-67
2023/08/19 00:57:33;;;;;;;6.85;6.05;;;;;;;22.77;99.08;101532.91;6057605;29;20516;-67
2023/08/19 01:00:55;;;;;;;6.07;5.20;;;;;;;22.74;98.85;101529.69;6042758;29;20244;-67
2023/08/19 01:04:16;;;;;;;7.65;5.15;;;;;;;22.76;98.91;101522.94;6044749;29;20252;-67
2023/08/19 01:07:44;;;;;;;4.97;4.03;;;;;;;22.71;99.00;101511.72;6040781;29;20237;-67
2023/08/19 01:11:14;;;;;;;6.65;5.97;;;;;;;22.66;99.65;101516.94;6058708;29;20233;-67
2023/08/19 01:14:45;;;;;;;6.05;5.50;;;;;;;22.62;99.39;101520.28;6060143;29;20238;-67
2023/08/19 01:18:08;;;;;;;9.07;5.05;;;;;;;22.62;99.90;101518.38;6060489;29;20221;-66
2023/08/19 01:21:29;;;;;;;5.28;4.80;;;;;;;22.65;99.65;101508.91;6033632;29;20321;-67
2023/08/19 01:24:52;;;;;;;5.47;4.97;;;;;;;22.62;99.73;101509.28;6057429;29;20237;-67
2023/08/19 01:28:14;;;;;;;8.82;5.65;;;;;;;22.61;100.00;101510.34;6066097;29;20323;-66
2023/08/19 01:31:35;;;;;;;5.95;5.38;;;;;;;22.66;99.93;101518.84;6062890;29;20526;-67
2023/08/19 01:34:56;;;;;;;7.72;5.32;;;;;;;22.54;100.00;101517.66;6062539;29;20351;-67
2023/08/19 01:38:24;;;;;;;6.60;5.97;;;;;;;22.63;100.00;101522.84;6036976;29;20236;-66
2023/08/19 01:41:47;;;;;;;6.47;5.20;;;;;;;22.60;100.00;101509.50;6042197;29;20248;-67
2023/08/19 01:45:11;;;;;;;5.95;4.85;;;;;;;22.49;100.00;101518.25;6037589;29;20234;-67
2023/08/19 01:48:32;;;;;;;8.63;5.68;;;;;;;22.52;100.00;101523.34;6060264;29;20518;-66
2023/08/19 01:51:53;;;;;;;5.07;4.68;;;;;;;22.59;100.00;101520.69;6061375;29;20248;-66
2023/08/19 01:55:14;;;;;;;6.40;5.78;;;;;;;22.55;100.00;101511.94;6004843;29;20237;-66
2023/08/19 01:58:37;;;;;;;7.07;6.40;;;;;;;22.55;100.00;101517.44;6050086;29;20584;-66
2023/08/19 02:01:57;;;;;;;6.95;5.38;;;;;;;22.58;99.99;101508.84;6037080;29;20237;-67
2023/08/19 02:05:19;;;;;;;5.68;4.65;;;;;;;22.53;100.00;101505.78;6057850;29;20238;-67
2023/08/19 02:08:39;;;;;;;6.57;5.95;;;;;;;22.52;100.00;101504.13;6058718;29;20234;-66
2023/08/19 02:12:00;;;;;;;4.72;4.32;;;;;;;22.50;100.00;101508.97;6057268;29;20237;-67
2023/08/19 02:15:23;;;;;;;4.78;4.38;;;;;;;22.52;100.00;101504.13;6046363;29;20233;-67
2023/08/19 02:18:43;;;;;;;6.00;5.40;;;;;;;22.50;100.00;101508.97;6036924;29;20234;-67
2023/08/19 02:22:05;;;;;;;6.20;5.57;;;;;;;22.50;100.00;101510.84;6049384;29;20317;-67
2023/08/19 02:25:25;;;;;;;6.35;5.68;;;;;;;22.51;100.00;101510.63;6055100;29;20237;-66
2023/08/19 02:28:46;;;;;;;6.68;6.07;;;;;;;22.47;100.00;101512.09;6056623;29;20233;-67
2023/08/19 02:32:09;;;;;;;6.65;6.07;;;;;;;22.53;100.00;101500.28;6030341;29;20234;-66
2023/08/19 02:35:29;;;;;;;5.72;5.22;;;;;;;22.43;100.00;101499.78;6053274;29;20240;-67
2023/08/19 02:38:50;;;;;;;6.50;5.85;;;;;;;22.47;100.00;101503.84;6049234;29;20319;-68
2023/08/19 02:42:15;;;;;;;5.82;5.32;;;;;;;22.58;100.00;101502.47;6052239;29;20607;-67
2023/08/19 02:45:36;;;;;;;6.10;5.50;;;;;;;22.54;99.84;101492.91;6055271;29;20233;-67
2023/08/19 02:48:58;;;;;;;6.60;6.00;;;;;;;22.54;99.73;101501.16;6054881;29;20241;-67
2023/08/19 02:52:19;;;;;;;7.78;4.38;;;;;;;22.50;99.72;101499.84;6058062;29;20237;-67
2023/08/19 02:55:41;;;;;;;5.47;5.05;;;;;;;22.47;100.00;101500.25;6041943;29;20557;-67
2023/08/19 02:59:02;;;;;;;9.75;6.38;;;;;;;22.34;100.00;101514.75;6040902;29;20353;-67
2023/08/19 03:02:23;;;;;;;5.68;5.28;;;;;;;22.37;100.00;101522.56;6036883;29;20237;-66
2023/08/19 03:05:45;;;;;;;6.18;4.78;;;;;;;22.32;100.00;101513.22;6036997;29;20526;-66
2023/08/19 03:09:06;;;;;;;8.25;5.53;;;;;;;22.38;100.00;101529.78;6053540;29;20236;-67
2023/08/19 03:12:26;;;;;;;6.55;5.95;;;;;;;22.35;100.00;101523.81;6049541;29;20232;-67
2023/08/19 03:15:47;;;;;;;12.57;6.15;;;;;;;22.38;100.00;101517.94;6054708;29;20238;-66
2023/08/19 03:19:10;;;;;;;6.47;5.93;;;;;;;22.36;100.00;101515.41;6060197;29;20233;-66
2023/08/19 03:22:33;;;;;;;6.90;6.35;;;;;;;22.38;100.00;101507.81;6001463;29;20228;-67
2023/08/19 03:25:55;;;;;;;6.43;5.60;;;;;;;22.30;100.00;101509.84;6034576;29;20260;-67
2023/08/19 03:29:16;;;;;;;7.72;5.93;;;;;;;22.34;100.00;101514.75;6057738;29;20245;-67
2023/08/19 03:32:37;;;;;;;7.00;6.40;;;;;;;22.32;100.00;101511.31;6043028;29;20252;-67
2023/08/19 03:36:00;;;;;;;6.93;6.28;;;;;;;22.45;100.00;101508.69;6036610;29;20359;-66
2023/08/19 03:39:22;;;;;;;6.00;5.50;;;;;;;22.39;100.00;101504.00;6067589;29;20617;-66
2023/08/19 03:42:43;;;;;;;7.38;6.22;;;;;;;22.46;100.00;101504.91;6040574;29;20225;-66
2023/08/19 03:46:03;;;;;;;7.40;5.38;;;;;;;22.27;100.00;101500.94;6060263;29;20503;-67
2023/08/19 03:49:24;;;;;;;6.78;6.13;;;;;;;22.21;100.00;101501.72;6054152;29;20237;-66
2023/08/19 03:52:44;;;;;;;6.28;5.72;;;;;;;22.20;100.00;101516.50;6058613;29;20330;-66
2023/08/19 03:56:07;;;;;;;6.25;5.45;;;;;;;22.25;100.00;101504.91;6063061;29;20323;-67
2023/08/19 03:59:28;;;;;;;5.45;4.90;;;;;;;22.19;100.00;101509.31;6062298;29;20237;-67
2023/08/19 04:02:50;;;;;;;7.50;5.80;;;;;;;22.17;100.00;101514.13;6033777;29;20233;-67
2023/08/19 04:06:11;;;;;;;7.13;6.53;;;;;;;22.19;100.00;101509.31;6035491;29;20229;-67
2023/08/19 04:09:32;;;;;;;6.60;6.05;;;;;;;22.17;100.00;101511.38;6060568;29;20319;-67
2023/08/19 04:12:54;;;;;;;6.68;6.07;;;;;;;22.14;100.00;101510.94;6049732;29;20237;-67
2023/08/19 04:16:15;;;;;;;8.07;6.40;;;;;;;22.17;100.00;101524.28;6043996;29;20237;-66
2023/08/19 04:19:36;;;;;;;6.85;6.18;;;;;;;22.12;100.00;101511.13;6058438;29;20237;-67
2023/08/19 04:22:57;;;;;;;9.20;6.53;;;;;;;22.24;100.00;101515.06;6022927;29;20270;-67
2023/08/19 04:26:18;;;;;;;7.60;6.75;;;;;;;22.31;100.00;101517.00;6056342;29;20245;-67
2023/08/19 04:29:41;;;;;;;6.45;5.70;;;;;;;22.21;100.00;101507.22;6054328;29;20233;-66
2023/08/19 04:33:04;;;;;;;7.65;6.85;;;;;;;22.20;100.00;101512.88;6036557;29;20241;-66
2023/08/19 04:36:25;;;;;;;8.15;7.32;;;;;;;22.21;100.00;101518.22;6043889;29;20730;-68
2023/08/19 04:39:46;;;;;;;7.93;7.20;;;;;;;21.88;100.00;101516.97;6059457;29;20237;-67
2023/08/19 04:43:12;;;;;;;7.05;6.35;;;;;;;22.00;100.00;101514.59;6035627;29;20521;-67
2023/08/19 04:46:36;;;;;;;7.00;6.38;;;;;;;22.12;100.00;101524.88;6039771;29;20233;-67
2023/08/19 04:49:58;;;;;;;7.68;6.32;;;;;;;22.17;100.00;101521.53;6047103;29;20265;-67
2023/08/19 04:53:20;;;;;;;9.30;5.70;;;;;;;;;;6046183;29;20241;-67
2023/08/19 04:56:42;;;;;;;6.53;5.93;;;;;;;22.30;100.00;101529.06;6038002;29;20234;-67
2023/08/19 05:00:03;;;;;;;6.22;5.63;;;;;;;22.38;100.00;101521.53;6053734;29;20278;-66
2023/08/19 05:03:26;;;;;;;6.95;6.22;;;;;;;22.30;100.00;101523.56;6046412;29;20237;-67
2023/08/19 05:06:46;;;;;;;7.10;5.93;;;;;;;22.37;100.00;101529.97;6042302;29;20229;-66
2023/08/19 05:10:10;;;;;;;7.63;6.93;;;;;;;22.53;100.00;101526.97;6062740;29;20872;-67
2023/08/19 05:13:30;;;;;;;6.35;5.75;;;;;;;22.62;99.73;101532.13;6058900;29;20694;-67
2023/08/19 05:16:52;;;;;;;6.10;5.60;;;;;;;22.62;99.08;101529.38;6054673;29;20248;-67
2023/08/19 05:20:14;;;;;;;6.07;5.38;;;;;;;22.59;98.83;101528.94;6066937;29;20233;-66
2023/08/19 05:23:35;;;;;;;5.53;5.00;;;;;;;22.65;98.62;101531.75;6054104;29;20617;-66
2023/08/19 05:26:56;;;;;;;5.72;5.25;;;;;;;22.77;98.22;101527.41;6049486;29;20615;-67
2023/08/19 05:30:18;;;;;;;5.18;4.75;;;;;;;22.88;97.91;101535.09;6062130;29;20241;-66
2023/08/19 05:33:38;;;;;;;7.70;5.47;;;;;;;23.04;97.32;101533.94;6061628;29;20269;-67
2023/08/19 05:37:01;;;;;;;6.38;5.50;;;;;;;22.93;96.62;101540.00;6053188;29;20225;-67
2023/08/19 05:40:21;;;;;;;5.68;4.72;;;;;;;23.00;96.61;101535.41;6053173;29;20233;-67
2023/08/19 05:43:42;;;;;;;5.97;5.07;;;;;;;22.96;96.60;101547.84;6060186;29;20639;-67
2023/08/19 05:47:06;;;;;;;5.22;4.80;;;;;;;22.88;96.63;101548.84;6055957;29;20494;-66
2023/08/19 05:50:27;;;;;;;6.97;5.47;;;;;;;23.07;96.88;101546.44;6060078;29;20226;-66
2023/08/19 05:53:50;;;;;;;5.82;5.00;;;;;;;22.94;96.57;101547.19;6060135;29;20320;-67
2023/08/19 05:57:10;;;;;;;7.82;5.63;;;;;;;23.05;96.03;101550.22;6043305;29;20229;-67
2023/08/19 06:00:31;;;;;;;7.28;6.00;;;;;;;23.16;96.46;101553.47;6056412;29;20319;-67
2023/08/19 06:03:52;;;;;;;5.63;5.18;;;;;;;23.13;95.83;101557.50;6057307;29;20261;-67
2023/08/19 06:07:15;;;;;;;6.38;5.78;;;;;;;23.10;96.02;101560.66;6045402;29;20221;-67
2023/08/19 06:10:43;;;;;;;6.28;5.60;;;;;;;23.16;95.76;101556.22;6052705;29;20240;-67
2023/08/19 06:14:04;;;;;;;5.70;5.20;;;;;;;23.10;96.10;101554.28;6054841;29;20674;-66
2023/08/19 06:17:26;;;;;;;6.25;5.18;;;;;;;23.37;95.96;101558.94;6055548;29;20229;-66
2023/08/19 06:20:47;;;;;;;6.45;5.57;;;;;;;23.39;95.50;101560.44;6059801;29;20555;-67
2023/08/19 06:24:08;;;;;;;6.35;5.85;;;;;;;23.41;95.17;101555.59;6058129;29;20233;-67
2023/08/19 06:27:31;;;;;;;6.57;6.07;;;;;;;23.32;95.08;101558.69;6029768;29;20240;-67
2023/08/19 06:30:52;;;;;;;6.32;5.82;;;;;;;23.55;94.91;101557.34;6049728;29;20258;-67
2023/08/19 06:34:13;;;;;;;6.20;5.70;;;;;;;23.71;94.22;101554.25;6057953;29;20253;-67
2023/08/19 06:37:40;;;;;;;5.45;4.85;;;;;;;23.94;93.13;101545.66;6057326;29;20237;-66
2023/08/19 06:41:03;;;;;;;6.28;5.57;;;;;;;24.08;92.43;101563.09;6053267;29;20592;-67
2023/08/19 06:44:29;;;;;;;7.25;6.57;;;;;;;23.98;91.93;101554.34;6051462;29;20530;-67
2023/08/19 06:47:53;;;;;;;6.75;6.20;;;;;;;23.98;91.75;101559.84;6054744;29;20233;-67
2023/08/19 06:51:14;;;;;;;7.63;6.47;;;;;;;24.07;91.41;101558.66;6041882;29;20249;-67
2023/08/19 06:54:36;;;;;;;6.03;5.30;;;;;;;23.84;91.63;101556.22;6053914;29;20241;-67
2023/08/19 06:58:03;;;;;;;7.95;5.57;;;;;;;24.05;91.77;101564.38;6045797;29;20241;-66
2023/08/19 07:01:30;;;;;;;5.55;5.03;;;;;;;24.11;92.05;101569.06;6041767;29;20229;-67
2023/08/19 07:04:52;;;;;;;9.07;6.22;;;;;;;24.18;91.78;101571.81;6054083;29;20229;-67
2023/08/19 07:08:16;;;;;;;6.90;5.55;;;;;;;24.13;91.42;101571.59;6042677;29;20244;-68
2023/08/19 07:11:37;;;;;;;4.80;4.40;;;;;;;24.44;90.59;101563.63;6029827;29;20577;-67
2023/08/19 07:14:59;;;;;;;6.93;5.82;;;;;;;24.71;89.44;101556.22;6058043;29;20233;-67
2023/08/19 07:18:24;;;;;;;6.68;6.07;;;;;;;24.77;89.03;101555.38;6057468;29;20241;-68
2023/08/19 07:21:46;;;;;;;8.27;6.28;;;;;;;24.76;88.64;101557.31;6046831;29;20241;-67
2023/08/19 07:25:09;;;;;;;5.63;5.10;;;;;;;24.93;88.45;101547.53;6058020;29;20522;-68
2023/08/19 07:28:30;;;;;;;5.75;5.18;;;;;;;24.94;88.08;101551.13;6058272;29;20241;-68
2023/08/19 07:31:51;;;;;;;6.22;5.70;;;;;;;24.94;88.48;101546.47;6063097;29;20620;-68
2023/08/19 07:35:14;;;;;;;6.90;6.20;;;;;;;24.95;88.20;101547.34;6068898;29;20335;-67
2023/08/19 07:38:35;;;;;;;7.70;5.78;;;;;;;25.21;87.60;101539.00;6074694;29;20225;-67
2023/08/19 07:41:56;;;;;;;5.63;5.18;;;;;;;25.18;87.39;101543.03;6049696;29;20245;-68
2023/08/19 07:45:17;;;;;;;10.38;7.18;;;;;;;25.26;86.83;101537.28;6063885;29;20240;-68
2023/08/19 07:48:38;;;;;;;6.28;5.75;;;;;;;25.30;86.73;101540.47;6063176;29;20322;-66
2023/08/19 07:52:00;;;;;;;6.15;5.53;;;;;;;25.52;86.39;101543.81;6062982;29;20611;-68
2023/08/19 07:55:21;;;;;;;7.80;6.90;;;;;;;25.69;85.89;101534.00;6069837;29;20241;-68
2023/08/19 07:58:43;;;;;;;6.07;5.65;;;;;;;25.90;85.66;101539.22;6056497;29;20236;-67
2023/08/19 08:02:04;;;;;;;7.30;6.60;;;;;;;25.85;84.49;101542.63;6034549;29;20241;-68
2023/08/19 08:05:25;;;;;;;8.15;5.97;;;;;;;25.52;84.85;101546.59;6057083;29;20265;-67
2023/08/19 08:08:47;;;;;;;6.93;6.22;;;;;;;25.86;85.14;101546.25;6057346;29;20237;-68
2023/08/19 08:12:09;;;;;;;5.90;5.28;;;;;;;25.69;84.39;101545.91;6045995;29;20659;-67
2023/08/19 08:15:30;;;;;;;6.07;5.40;;;;;;;25.87;83.64;101545.16;6039124;29;20639;-68
2023/08/19 08:18:51;;;;;;;7.32;6.72;;;;;;;26.34;82.70;101549.41;6045804;29;20244;-66
2023/08/19 08:22:12;;;;;;;11.05;5.80;;;;;;;26.67;82.43;101547.25;6028771;29;20324;-68
2023/08/19 08:25:37;;;;;;;6.13;5.35;;;;;;;26.58;80.70;101543.91;6039309;29;20244;-68
2023/08/19 08:28:58;;;;;;;6.75;6.10;;;;;;;26.52;81.03;101549.47;6057062;29;20257;-68
2023/08/19 08:32:18;;;;;;;6.25;5.65;;;;;;;26.84;80.37;101552.03;6031605;29;20336;-68
2023/08/19 08:35:39;;;;;;;7.38;6.78;;;;;;;26.53;79.87;101546.50;6043692;29;20623;-68
2023/08/19 08:39:00;;;;;;;7.30;6.60;;;;;;;26.96;78.74;101542.97;6059429;29;20242;-68
2023/08/19 08:42:24;;;;;;;5.53;5.00;;;;;;;27.08;77.78;101532.88;6047783;29;20705;-69
2023/08/19 08:45:45;;;;;;;19.52;17.70;;;;;;;27.56;77.40;101528.28;6039143;29;20773;-68
2023/08/19 08:49:06;;;;;;;62.75;46.47;;;;;;;28.20;78.71;101528.53;6045704;29;20769;-70
2023/08/19 08:52:27;;;;;;;9.88;9.07;;;;;;;28.14;75.08;101536.94;6029165;29;20221;-68
2023/08/19 08:55:51;;;;;;;21.05;18.95;;;;;;;28.25;76.46;101539.75;6031801;29;20261;-70
2023/08/19 08:59:14;;;;;;;8.52;7.82;;;;;;;28.43;73.66;101531.34;6039666;29;20806;-69
2023/08/19 09:02:36;;;;;;;7.22;6.20;;;;;;;28.21;73.00;101538.53;6033792;29;20237;-68
2023/08/19 09:05:58;;;;;;;6.45;5.85;;;;;;;28.02;72.52;101542.44;6029316;29;20635;-69
2023/08/19 09:09:22;;;;;;;5.65;5.25;;;;;;;27.84;73.08;101534.13;6044471;29;20241;-68
2023/08/19 09:12:48;;;;;;;8.07;6.63;;;;;;;27.98;72.76;101532.88;6031760;29;20257;-69
2023/08/19 09:16:11;;;;;;;6.57;6.03;;;;;;;28.40;72.43;101526.28;6039958;29;20266;-69
2023/08/19 09:19:32;;;;;;;6.00;5.50;;;;;;;28.54;71.19;101526.91;6062952;29;20236;-68
2023/08/19 09:23:04;;;;;;;6.65;6.05;;;;;;;28.42;70.75;101538.00;6037168;29;20387;-68
2023/08/19 09:26:27;;;;;;;7.00;6.40;;;;;;;28.38;70.49;101531.22;6052689;29;20229;-68
2023/08/19 09:29:49;;;;;;;6.57;5.97;;;;;;;28.72;70.33;101520.47;6063634;29;20248;-69
2023/08/19 09:33:18;;;;;;;7.90;6.28;;;;;;;28.31;70.63;101527.69;6051847;29;20729;-68
2023/08/19 09:36:41;;;;;;;7.32;6.70;;;;;;;28.00;71.90;101519.63;6055835;29;20236;-69
2023/08/19 09:40:07;;;;;;;8.10;7.13;;;;;;;28.14;72.69;101523.91;6043719;29;20245;-69
2023/08/19 09:43:28;;;;;;;6.45;5.95;;;;;;;28.62;71.31;101518.25;6045124;29;20241;-68
2023/08/19 09:46:49;;;;;;;8.15;6.80;;;;;;;28.87;70.18;101509.75;6051823;29;20233;-68
2023/08/19 09:50:12;;;;;;;7.25;6.55;;;;;;;29.00;69.35;101507.56;6062138;29;20234;-67
2023/08/19 09:53:33;;;;;;;6.88;6.28;;;;;;;28.65;69.73;101506.69;6049072;29;20226;-69
2023/08/19 09:56:55;;;;;;;7.72;6.88;;;;;;;29.18;69.50;101501.88;6052270;29;20233;-69
2023/08/19 10:00:16;;;;;;;8.55;7.72;;;;;;;29.16;69.16;101509.63;6060800;29;20224;-69
2023/08/19 10:03:37;;;;;;;7.25;6.57;;;;;;;28.90;69.24;101507.31;6058941;29;20233;-69
2023/08/19 10:07:04;;;;;;;6.40;5.90;;;;;;;28.41;70.73;101505.75;6057611;29;20241;-68
2023/08/19 10:10:29;;;;;;;8.20;7.32;;;;;;;28.63;70.59;101506.09;6058256;29;20245;-68
2023/08/19 10:13:53;;;;;;;7.18;6.57;;;;;;;28.89;71.21;101513.13;6061586;29;20946;-68
2023/08/19 10:17:17;;;;;;;8.15;7.35;;;;;;;28.47;71.80;101501.22;6034816;29;20549;-68
2023/08/19 10:20:39;;;;;;;10.95;7.15;;;;;;;28.93;71.55;101492.13;6046984;29;20265;-69
2023/08/19 10:24:03;;;;;;;7.13;6.55;;;;;;;29.17;70.60;101505.78;6059846;29;20234;-69
2023/08/19 10:27:27;;;;;;;8.50;6.90;;;;;;;29.26;70.30;101486.81;6041023;29;20260;-70
2023/08/19 10:31:04;;;;;;;9.18;7.43;;;;;;;29.58;69.54;101493.59;6051553;29;20249;-68
2023/08/19 10:34:28;;;;;;;10.07;8.15;;;;;;;29.48;68.61;101507.28;6055260;29;20228;-67
2023/08/19 10:37:50;;;;;;;7.57;6.97;;;;;;;29.12;69.30;101494.50;6042767;29;20232;-68
2023/08/19 10:41:22;;;;;;;7.47;6.72;;;;;;;29.08;70.47;101486.91;6039791;29;20313;-68
2023/08/19 10:44:43;;;;;;;8.40;7.57;;;;;;;29.38;69.57;101493.16;6040088;29;20250;-69
2023/08/19 10:48:04;;;;;;;7.70;7.05;;;;;;;29.89;69.14;101487.59;6023667;29;20328;-69
2023/08/19 10:51:47;;;;;;;7.75;6.97;;;;;;;29.87;68.28;101483.41;6042847;29;20234;-68
2023/08/19 10:55:09;;;;;;;8.93;8.18;;;;;;;30.47;68.33;101484.53;6048026;29;20237;-69
2023/08/19 10:58:31;;;;;;;10.68;9.30;;;;;;;30.69;67.19;101482.66;6040054;29;20241;-70
2023/08/19 11:01:53;;;;;;;7.53;6.80;;;;;;;30.44;66.04;101482.25;6023258;29;20229;-69
2023/08/19 11:05:14;;;;;;;7.43;6.72;;;;;;;30.64;65.73;101487.31;6047075;29;20507;-69
2023/08/19 11:08:43;;;;;;;7.05;6.25;;;;;;;30.24;66.39;101472.66;6059567;29;20297;-65
2023/08/19 11:12:04;;;;;;;7.65;6.75;;;;;;;29.91;66.68;101473.44;6037415;29;20241;-66
2023/08/19 11:15:26;;;;;;;8.13;7.47;;;;;;;30.50;65.31;101475.66;6036905;29;20819;-68
2023/08/19 11:18:49;;;;;;;8.05;7.30;;;;;;;30.70;65.98;101476.00;6054052;29;20230;-67
2023/08/19 11:22:13;;;;;;;16.90;7.53;;;;;;;31.14;64.91;101474.19;6050791;29;20229;-68
2023/08/19 11:25:36;;;;;;;7.40;6.70;;;;;;;30.45;65.39;101474.75;6046308;29;20652;-68
2023/08/19 11:28:57;;;;;;;7.35;6.82;;;;;;;30.12;66.48;101477.47;6045166;29;21874;-68
2023/08/19 11:32:20;;;;;;;9.10;7.72;;;;;;;30.20;67.22;101472.34;6045216;29;20233;-68
2023/08/19 11:35:42;;;;;;;8.45;7.75;;;;;;;30.55;66.76;101472.13;6038299;29;20269;-69
2023/08/19 11:39:04;;;;;;;8.25;7.57;;;;;;;30.67;65.72;101470.94;6048914;29;20236;-70
2023/08/19 11:42:26;;;;;;;8.27;7.55;;;;;;;30.93;65.96;101460.22;6048944;29;20884;-69
2023/08/19 11:45:47;;;;;;;7.50;6.78;;;;;;;31.42;64.78;101471.25;6046386;29;20538;-69
2023/08/19 11:49:11;;;;;;;9.77;8.88;;;;;;;31.64;63.15;101454.53;6047515;29;20230;-69
2023/08/19 11:52:33;;;;;;;8.48;7.78;;;;;;;32.24;62.10;101462.72;6037307;29;20225;-67
2023/08/19 11:55:57;;;;;;;8.60;7.80;;;;;;;31.19;63.39;101463.09;6033735;29;20308;-69
2023/08/19 11:59:27;;;;;;;7.00;6.47;;;;;;;30.71;65.61;101458.19;6030317;29;20237;-68
2023/08/19 12:02:49;;;;;;;6.95;6.35;;;;;;;30.16;66.80;101450.81;6031845;29;20237;-69
2023/08/19 12:06:11;;;;;;;7.25;6.53;;;;;;;29.94;67.19;101462.66;6033804;29;20789;-68
2023/08/19 12:09:35;;;;;;;7.95;7.15;;;;;;;29.95;67.20;101467.16;6056501;29;20229;-69
2023/08/19 12:12:59;;;;;;;8.98;8.00;;;;;;;30.20;67.42;101457.56;6042990;29;20331;-69
2023/08/19 12:16:21;;;;;;;7.93;7.22;;;;;;;30.18;67.89;101454.19;6041996;29;20244;-69
2023/08/19 12:19:42;;;;;;;7.70;7.10;;;;;;;30.31;67.90;101459.47;6060443;29;20225;-69
2023/08/19 12:23:04;;;;;;;7.47;6.65;;;;;;;30.18;67.33;101457.81;6049311;29;20612;-68
2023/08/19 12:26:26;;;;;;;8.05;7.35;;;;;;;30.60;66.74;101459.13;6050127;29;20237;-69
2023/08/19 12:29:48;;;;;;;8.07;7.32;;;;;;;31.23;64.96;101463.47;6061358;29;20229;-68
2023/08/19 12:33:09;;;;;;;8.50;7.35;;;;;;;31.39;63.95;101459.75;6045952;29;20320;-68
2023/08/19 12:36:30;;;;;;;9.10;6.85;;;;;;;31.17;65.20;101453.31;6047944;29;20232;-70
2023/08/19 12:39:52;;;;;;;9.27;8.48;;;;;;;31.36;64.06;101457.47;6060863;29;20663;-68
2023/08/19 12:43:15;;;;;;;7.13;6.43;;;;;;;32.13;62.35;101456.19;6050758;29;20241;-69
2023/08/19 12:46:42;;;;;;;7.53;6.93;;;;;;;31.31;63.07;101454.63;6042205;29;20270;-70
2023/08/19 12:50:04;;;;;;;7.03;6.47;;;;;;;30.89;64.90;101451.53;6050776;29;20237;-71
2023/08/19 12:53:25;;;;;;;7.32;6.57;;;;;;;30.67;65.15;101459.81;6047898;29;20260;-70
2023/08/19 12:56:47;;;;;;;6.90;6.30;;;;;;;30.24;64.74;101456.81;6041535;29;20234;-70
2023/08/19 13:00:09;;;;;;;7.00;6.40;;;;;;;30.10;64.70;101461.03;6062644;29;20517;-70
2023/08/19 13:03:30;;;;;;;7.20;6.50;;;;;;;30.10;64.95;101460.19;6054479;29;20722;-69
2023/08/19 13:06:51;;;;;;;6.28;5.78;;;;;;;29.91;65.23;101457.63;6043325;29;20568;-70
2023/08/19 13:10:13;;;;;;;7.65;5.85;;;;;;;29.82;64.88;101456.31;6058049;29;20245;-70
2023/08/19 13:13:36;;;;;;;6.25;5.75;;;;;;;29.83;65.18;101463.56;6061558;29;20237;-69
2023/08/19 13:16:57;;;;;;;8.98;7.13;;;;;;;29.68;65.97;101460.47;6053363;29;20245;-70
2023/08/19 13:20:20;;;;;;;7.00;6.35;;;;;;;29.73;65.85;101455.03;6062486;29;20332;-70
2023/08/19 13:23:41;;;;;;;7.38;6.35;;;;;;;29.66;65.69;101464.56;6059707;29;20233;-69
2023/08/19 13:27:03;;;;;;;6.75;6.22;;;;;;;29.64;65.91;101469.53;6043457;29;20249;-69
2023/08/19 13:30:25;;;;;;;7.03;6.35;;;;;;;29.74;66.38;101473.41;6056282;29;20495;-68
2023/08/19 13:33:46;;;;;;;7.30;6.70;;;;;;;29.65;66.80;101472.06;6064888;29;20344;-69
2023/08/19 13:37:07;;;;;;;7.45;6.78;;;;;;;29.53;66.43;101468.50;6062682;29;20232;-69
2023/08/19 13:40:28;;;;;;;6.68;6.05;;;;;;;29.51;66.38;101486.50;6057922;29;20225;-69
2023/08/19 13:43:49;;;;;;;7.65;6.88;;;;;;;29.38;67.41;101482.06;6054869;29;20670;-69
2023/08/19 13:47:11;;;;;;;8.57;6.80;;;;;;;29.37;67.64;101485.94;6048278;29;20476;-68
2023/08/19 13:50:32;;;;;;;7.30;6.55;;;;;;;29.30;68.14;101482.44;6054117;29;20228;-70
2023/08/19 13:53:53;;;;;;;7.38;6.68;;;;;;;29.26;68.36;101477.63;6061891;29;20233;-69
2023/08/19 13:57:14;;;;;;;9.10;8.15;;;;;;;29.16;68.85;101478.25;6049342;29;20262;-69
2023/08/19 14:00:35;;;;;;;8.93;7.10;;;;;;;29.11;69.06;101470.59;6050769;29;20257;-69
2023/08/19 14:03:57;;;;;;;7.88;6.95;;;;;;;29.10;69.29;101473.63;6058704;29;20248;-68
2023/08/19 14:07:19;;;;;;;7.38;6.70;;;;;;;29.03;69.62;101476.53;6048397;29;20505;-68
2023/08/19 14:10:40;;;;;;;7.95;7.25;;;;;;;28.95;69.74;101485.22;6049179;29;20229;-68
2023/08/19 14:14:01;;;;;;;7.50;6.45;;;;;;;28.95;70.14;101482.47;6060364;29;20232;-69
2023/08/19 14:17:22;;;;;;;7.15;6.45;;;;;;;28.87;70.25;101476.41;6048362;29;20241;-69
2023/08/19 14:20:44;;;;;;;6.90;6.20;;;;;;;28.86;70.68;101477.50;6050583;29;20260;-69
2023/08/19 14:24:05;;;;;;;11.18;7.65;;;;;;;28.95;70.57;101476.91;6049257;29;20269;-69
2023/08/19 14:27:26;;;;;;;7.65;6.95;;;;;;;28.96;70.93;101474.94;6042129;29;20241;-68
2023/08/19 14:30:47;;;;;;;7.35;6.65;;;;;;;28.91;71.03;101474.84;6048612;29;20250;-68
2023/08/19 14:34:08;;;;;;;7.53;6.82;;;;;;;28.85;71.24;101476.63;6051743;29;20245;-68
2023/08/19 14:37:30;;;;;;;8.70;7.80;;;;;;;28.85;71.66;101473.03;6048139;29;20245;-68
2023/08/19 14:40:51;;;;;;;7.95;7.25;;;;;;;28.85;71.87;101468.31;6048147;29;20234;-68
2023/08/19 14:44:12;;;;;;;6.90;6.28;;;;;;;28.90;71.91;101474.00;6064375;29;20237;-68
2023/08/19 14:47:34;;;;;;;7.38;6.55;;;;;;;28.93;72.05;101465.19;6047764;29;20241;-68
2023/08/19 14:50:55;;;;;;;6.82;6.18;;;;;;;28.87;72.26;101470.88;6050688;29;20237;-67
2023/08/19 14:54:17;;;;;;;7.50;6.55;;;;;;;28.69;73.04;101473.75;6067667;29;20236;-68
2023/08/19 14:57:38;;;;;;;7.07;6.38;;;;;;;28.72;73.07;101482.47;6063625;29;20240;-68
2023/08/19 15:00:59;;;;;;;7.38;6.78;;;;;;;28.74;73.26;101483.06;6055328;29;20228;-67
2023/08/19 15:04:21;;;;;;;6.60;6.00;;;;;;;28.66;73.85;101483.41;6064038;29;20611;-67
2023/08/19 15:07:42;;;;;;;7.40;6.80;;;;;;;28.59;74.28;101491.00;6046530;29;21481;-67
2023/08/19 15:11:04;;;;;;;8.63;7.78;;;;;;;28.59;74.43;101493.78;6058208;29;20311;-70
2023/08/19 15:14:25;;;;;;;6.55;6.05;;;;;;;28.55;74.49;101491.69;6046744;29;20328;-68
2023/08/19 15:17:46;;;;;;;8.07;7.35;;;;;;;28.55;74.49;101494.47;6045861;29;20539;-67
2023/08/19 15:21:09;;;;;;;8.75;7.07;;;;;;;28.56;74.86;101493.38;6064478;29;20232;-68
2023/08/19 15:24:30;;;;;;;7.13;6.47;;;;;;;28.60;74.98;101501.00;6070193;29;20241;-67
2023/08/19 15:27:52;;;;;;;7.38;6.68;;;;;;;28.45;75.34;101497.84;6065286;29;20316;-68
2023/08/19 15:31:14;;;;;;;8.43;7.70;;;;;;;28.45;75.40;101500.59;6062726;29;20233;-68
2023/08/19 15:34:35;;;;;;;8.43;7.63;;;;;;;28.45;75.47;101498.66;6071336;29;20232;-68
2023/08/19 15:37:55;;;;;;;8.35;7.65;;;;;;;28.54;75.33;101506.66;6059197;29;20229;-68